Terminal Aerodrome Forecast
Issued by NWS Portland, OR

Home | Current Version | Previous Version | Text Only | Print | Product List | Glossary On
Versions: 1 2 3 4 5 6 7 8 9 10 11 12 13 14 15 16 17
000
FTUS46 KPQR 281140
TAFAST
TAF
KAST 281140Z 2812/2912 23004KT P6SM OVC023
     FM282100 26008KT P6SM SCT028
     FM290200 23004KT P6SM SCT030 BKN070
     FM290800 22004KT P6SM BKN015=

USA.gov is the U.S. government's official web portal to all federal, state and local government web resources and services.